Time;durP1;ratioP1;P1;durP2;ratioP2;P2;SDS_P1;SDS_P2;PMS_P1;PMS_P2;Temp;Humidity;BMP_temperature;BMP_pressure;BME280_temperature;BME280_humidity;BME280_pressure;Samples;Min_cycle;Max_cycle;Signal;HPM_P1;HPM_P2
2022/04/21 00:00:24;;;;;;;9.93;5.90;;;;;;;;;;5053509;28;20032;-74
2022/04/21 00:02:50;;;;;;;11.95;5.53;;;;;;;;;;5053694;28;20056;-74
2022/04/21 00:05:17;;;;;;;16.60;5.35;;;;;;;;;;5053346;28;20045;-74
2022/04/21 00:07:43;;;;;;;9.68;5.80;;;;;;;;;;5053548;28;20013;-74
2022/04/21 00:10:10;;;;;;;9.00;5.07;;;;;;;;;;5053556;28;20028;-74
2022/04/21 00:12:36;;;;;;;8.52;5.15;;;;;;;;;;5053324;28;20040;-74
2022/04/21 00:15:03;;;;;;;11.60;5.05;;;;;;;;;;5053365;28;20032;-74
2022/04/21 00:17:29;;;;;;;12.20;5.93;;;;;;;;;;5053552;28;20040;-74
2022/04/21 00:19:55;;;;;;;8.95;5.53;;;;;;;;;;5053164;28;20021;-74
2022/04/21 00:25:06;;;;;;;12.05;5.72;;;;;;;;;;5053254;28;20036;-74
2022/04/21 00:27:39;;;;;;;8.15;5.75;;;;;;;;;;5051931;28;20116;-74
2022/04/21 00:30:06;;;;;;;10.68;5.55;;;;;;;;;;5053054;28;20028;-74
2022/04/21 00:32:35;;;;;;;9.57;5.75;;;;;;;;;;5053373;28;20036;-75
2022/04/21 00:35:01;;;;;;;11.95;5.38;;;;;;;;;;5052276;28;20025;-74
2022/04/21 00:37:28;;;;;;;9.18;5.07;;;;;;;;;;5052929;28;20570;-74
2022/04/21 00:39:54;;;;;;;8.57;5.72;;;;;;;;;;5051568;28;20040;-74
2022/04/21 00:42:20;;;;;;;16.45;5.97;;;;;;;;;;5052770;28;20021;-74
2022/04/21 00:44:46;;;;;;;9.40;5.43;;;;;;;;;;5052920;28;20029;-74
2022/04/21 00:47:13;;;;;;;11.70;6.30;;;;;;;;;;5052896;28;20071;-74
2022/04/21 00:49:39;;;;;;;9.68;5.65;;;;;;;;;;5052813;28;20025;-74
2022/04/21 00:52:06;;;;;;;10.07;5.60;;;;;;;;;;5052687;28;20049;-74
2022/04/21 00:54:33;;;;;;;12.75;6.50;;;;;;;;;;5052704;28;20417;-74
2022/04/21 00:57:00;;;;;;;11.20;5.30;;;;;;;;;;5052588;28;20030;-74
2022/04/21 00:59:27;;;;;;;10.45;6.50;;;;;;;;;;5052681;28;20074;-74
2022/04/21 01:04:41;;;;;;;10.68;5.93;;;;;;;;;;5052130;28;20055;-74
2022/04/21 01:07:10;;;;;;;9.30;5.30;;;;;;;;;;5052461;28;20033;-74
2022/04/21 01:09:37;;;;;;;10.07;5.90;;;;;;;;;;5052340;28;20066;-74
2022/04/21 01:12:09;;;;;;;11.80;5.65;;;;;;;;;;5052351;28;20052;-74
2022/04/21 01:14:37;;;;;;;14.35;5.88;;;;;;;;;;5040711;28;20026;-74
2022/04/21 01:17:03;;;;;;;11.13;5.65;;;;;;;;;;5032427;28;20128;-74
2022/04/21 01:19:29;;;;;;;9.38;5.30;;;;;;;;;;5032963;28;20063;-74
2022/04/21 01:21:55;;;;;;;14.30;6.38;;;;;;;;;;5052034;28;20063;-74
2022/04/21 01:24:21;;;;;;;10.05;6.07;;;;;;;;;;5052152;28;20032;-74
2022/04/21 01:26:48;;;;;;;9.65;5.45;;;;;;;;;;5051979;28;20021;-74
2022/04/21 01:29:14;;;;;;;11.68;6.20;;;;;;;;;;5051956;28;20033;-74
2022/04/21 01:31:40;;;;;;;11.00;5.85;;;;;;;;;;5051798;28;20094;-74
2022/04/21 01:34:06;;;;;;;12.65;6.80;;;;;;;;;;5049734;28;20017;-74
2022/04/21 01:36:33;;;;;;;11.77;6.63;;;;;;;;;;5045720;28;20040;-74
2022/04/21 01:41:43;;;;;;;10.98;6.15;;;;;;;;;;5050835;28;20048;-74
2022/04/21 01:44:09;;;;;;;11.15;6.85;;;;;;;;;;5050916;28;20032;-74
2022/04/21 01:46:35;;;;;;;11.73;7.18;;;;;;;;;;5050951;28;20024;-74
2022/04/21 01:49:01;;;;;;;10.50;6.60;;;;;;;;;;5049806;28;20090;-74
2022/04/21 01:51:28;;;;;;;10.50;6.32;;;;;;;;;;5050989;28;20025;-74
2022/04/21 01:53:54;;;;;;;16.08;6.65;;;;;;;;;;5050289;28;20032;-74
2022/04/21 01:56:20;;;;;;;12.88;7.03;;;;;;;;;;5049470;28;20120;-74
2022/04/21 01:58:46;;;;;;;12.75;6.70;;;;;;;;;;5051094;28;20135;-74
2022/04/21 02:01:12;;;;;;;12.73;6.85;;;;;;;;;;5050841;28;20148;-74
2022/04/21 02:03:39;;;;;;;11.65;6.40;;;;;;;;;;5050968;28;20021;-74
2022/04/21 02:06:06;;;;;;;13.20;6.47;;;;;;;;;;5050780;28;20037;-74
2022/04/21 02:08:32;;;;;;;13.93;6.25;;;;;;;;;;5050590;28;20032;-74
2022/04/21 02:10:58;;;;;;;11.65;6.28;;;;;;;;;;5050846;28;20460;-74
2022/04/21 02:13:24;;;;;;;10.32;6.30;;;;;;;;;;5050758;28;20227;-74
2022/04/21 02:15:50;;;;;;;11.52;5.88;;;;;;;;;;5050973;28;20159;-74
2022/04/21 02:18:17;;;;;;;9.73;5.80;;;;;;;;;;5050696;28;20025;-74
2022/04/21 02:20:43;;;;;;;10.45;6.03;;;;;;;;;;5050817;28;20029;-74
2022/04/21 02:23:09;;;;;;;11.48;6.20;;;;;;;;;;5050606;28;20375;-74
2022/04/21 02:25:35;;;;;;;10.00;6.00;;;;;;;;;;5050818;28;20455;-74
2022/04/21 02:28:01;;;;;;;12.32;6.60;;;;;;;;;;5050781;28;20033;-74
2022/04/21 02:30:27;;;;;;;15.00;6.68;;;;;;;;;;5050497;28;20032;-74
2022/04/21 02:32:53;;;;;;;10.20;6.38;;;;;;;;;;5049092;28;20417;-74
2022/04/21 02:35:19;;;;;;;11.30;6.50;;;;;;;;;;5051129;28;20120;-74
2022/04/21 02:37:46;;;;;;;10.80;5.88;;;;;;;;;;5051743;28;20414;-74
2022/04/21 02:40:13;;;;;;;12.02;6.97;;;;;;;;;;5051472;28;20053;-74
2022/04/21 02:42:39;;;;;;;13.93;5.93;;;;;;;;;;5051567;28;20513;-74
2022/04/21 02:45:06;;;;;;;14.98;6.75;;;;;;;;;;5051433;28;20052;-74
2022/04/21 02:47:33;;;;;;;10.57;6.40;;;;;;;;;;5051539;28;20503;-74
2022/04/21 02:49:59;;;;;;;12.05;6.93;;;;;;;;;;5051513;28;20434;-74
2022/04/21 02:52:25;;;;;;;13.65;6.80;;;;;;;;;;5051560;28;20033;-74
2022/04/21 02:57:35;;;;;;;13.25;7.28;;;;;;;;;;5053032;28;20055;-74
2022/04/21 03:00:04;;;;;;;15.18;7.30;;;;;;;;;;5054819;28;20036;-74
2022/04/21 03:02:30;;;;;;;13.25;7.35;;;;;;;;;;5054976;28;20029;-74
2022/04/21 03:04:56;;;;;;;16.23;7.90;;;;;;;;;;5054553;28;20110;-74
2022/04/21 03:07:22;;;;;;;13.73;7.32;;;;;;;;;;5054903;28;20021;-74
2022/04/21 03:09:49;;;;;;;21.05;8.57;;;;;;;;;;5054820;28;20028;-74
2022/04/21 03:12:15;;;;;;;14.95;7.97;;;;;;;;;;5042724;28;20027;-74
2022/04/21 03:14:42;;;;;;;13.52;8.00;;;;;;;;;;5034964;28;20022;-74
2022/04/21 03:17:09;;;;;;;13.82;8.45;;;;;;;;;;5034633;28;20048;-74
2022/04/21 03:19:35;;;;;;;16.60;9.05;;;;;;;;;;5034742;28;20083;-74
2022/04/21 03:24:46;;;;;;;13.38;6.78;;;;;;;;;;5054623;28;20505;-74
2022/04/21 03:27:13;;;;;;;14.68;7.70;;;;;;;;;;5054704;28;20517;-74
2022/04/21 03:29:39;;;;;;;16.90;8.52;;;;;;;;;;5054163;28;20029;-74
2022/04/21 03:32:10;;;;;;;14.52;8.00;;;;;;;;;;5054422;28;20108;-74
2022/04/21 03:34:40;;;;;;;19.17;7.93;;;;;;;;;;5054140;28;20121;-74
2022/04/21 03:37:06;;;;;;;16.77;7.50;;;;;;;;;;5054385;28;20100;-74
2022/04/21 03:39:32;;;;;;;15.18;8.30;;;;;;;;;;5054323;28;20025;-74
2022/04/21 03:41:58;;;;;;;13.52;7.63;;;;;;;;;;5054405;28;20368;-74
2022/04/21 03:44:24;;;;;;;16.92;9.20;;;;;;;;;;5054177;28;20387;-74
2022/04/21 03:46:50;;;;;;;15.00;8.57;;;;;;;;;;5054029;28;20020;-74
2022/04/21 03:49:17;;;;;;;16.45;8.25;;;;;;;;;;5053983;28;20084;-74
2022/04/21 03:51:43;;;;;;;13.40;8.35;;;;;;;;;;5054070;28;20483;-74
2022/04/21 03:54:09;;;;;;;16.27;9.35;;;;;;;;;;5053900;28;20120;-74
2022/04/21 03:56:35;;;;;;;13.38;7.68;;;;;;;;;;5054049;28;20033;-74
2022/04/21 03:59:01;;;;;;;15.65;7.68;;;;;;;;;;5054095;28;20021;-74
2022/04/21 04:01:27;;;;;;;16.13;9.02;;;;;;;;;;5049046;28;20391;-74
2022/04/21 04:03:53;;;;;;;15.38;7.53;;;;;;;;;;5033916;28;20033;-74
2022/04/21 04:11:50;;;;;;;14.30;7.07;;;;;;;;;;5042078;28;20188;-74
2022/04/21 04:14:16;;;;;;;19.70;8.35;;;;;;;;;;5053563;28;20104;-74
2022/04/21 04:16:42;;;;;;;18.58;7.85;;;;;;;;;;5053554;28;20387;-74
2022/04/21 04:19:09;;;;;;;16.50;8.20;;;;;;;;;;5053451;28;20468;-74
2022/04/21 04:21:35;;;;;;;15.27;8.02;;;;;;;;;;5053407;28;20029;-74
2022/04/21 04:24:01;;;;;;;12.98;7.20;;;;;;;;;;5052926;28;20473;-74
2022/04/21 04:26:28;;;;;;;19.13;8.23;;;;;;;;;;5052048;28;20167;-74
2022/04/21 04:28:54;;;;;;;16.05;7.55;;;;;;;;;;5053237;28;20107;-74
2022/04/21 04:31:20;;;;;;;15.07;7.10;;;;;;;;;;5036928;28;20033;-74
2022/04/21 04:33:46;;;;;;;15.82;8.15;;;;;;;;;;5048059;28;20033;-74
2022/04/21 04:36:15;;;;;;;18.88;9.40;;;;;;;;;;5033019;28;20099;-74
2022/04/21 04:38:42;;;;;;;13.68;8.50;;;;;;;;;;5033401;28;20028;-74
2022/04/21 04:43:52;;;;;;;17.15;8.18;;;;;;;;;;5033282;28;20028;-74
2022/04/21 04:46:37;;;;;;;14.38;8.23;;;;;;;;;;5033120;28;20496;-74
2022/04/21 04:49:05;;;;;;;26.48;10.15;;;;;;;;;;5033078;28;20456;-74
2022/04/21 04:51:32;;;;;;;16.05;9.07;;;;;;;;;;5032877;28;20033;-74
2022/04/21 04:53:58;;;;;;;16.20;9.70;;;;;;;;;;5032861;28;20456;-74
2022/04/21 04:56:26;;;;;;;12.45;6.80;;;;;;;;;;5032772;28;20449;-74
2022/04/21 04:58:53;;;;;;;13.48;6.97;;;;;;;;;;5032770;28;20033;-74
2022/04/21 05:01:26;;;;;;;13.20;6.40;;;;;;;;;;5043076;28;20025;-74
2022/04/21 05:03:52;;;;;;;16.10;6.53;;;;;;;;;;5052702;28;20452;-74
2022/04/21 05:06:18;;;;;;;14.75;6.88;;;;;;;;;;5052222;28;20058;-74
2022/04/21 05:08:44;;;;;;;14.10;6.80;;;;;;;;;;5052215;28;20033;-74
2022/04/21 05:11:11;;;;;;;13.38;6.85;;;;;;;;;;5049411;28;20029;-74
2022/04/21 05:13:37;;;;;;;14.25;7.15;;;;;;;;;;5032495;28;20029;-74
2022/04/21 05:16:03;;;;;;;11.27;6.28;;;;;;;;;;5031025;28;20479;-74
2022/04/21 05:18:29;;;;;;;11.73;6.60;;;;;;;;;;5032475;28;20033;-74
2022/04/21 05:20:55;;;;;;;14.00;6.00;;;;;;;;;;5036755;28;20447;-74
2022/04/21 05:23:22;;;;;;;11.82;6.22;;;;;;;;;;5052139;28;20025;-74
2022/04/21 05:25:48;;;;;;;9.90;5.90;;;;;;;;;;5052234;28;20024;-74
2022/04/21 05:28:14;;;;;;;14.90;6.32;;;;;;;;;;5052151;28;20021;-74
2022/04/21 05:30:55;;;;;;;10.15;5.90;;;;;;;;;;5041391;28;20057;-74
2022/04/21 05:33:26;;;;;;;11.38;5.70;;;;;;;;;;5032049;28;20022;-74
2022/04/21 05:35:52;;;;;;;10.88;6.32;;;;;;;;;;5032244;28;20048;-74
2022/04/21 05:38:20;;;;;;;13.05;5.90;;;;;;;;;;5032156;28;20049;-74
2022/04/21 05:40:46;;;;;;;11.38;4.88;;;;;;;;;;5032374;28;20021;-74
2022/04/21 05:43:12;;;;;;;10.30;5.38;;;;;;;;;;5032020;28;20098;-74
2022/04/21 05:45:39;;;;;;;12.80;5.68;;;;;;;;;;5047254;28;20029;-74
2022/04/21 05:48:05;;;;;;;8.90;5.28;;;;;;;;;;5032587;28;20413;-74
2022/04/21 05:50:32;;;;;;;10.88;5.47;;;;;;;;;;5032766;28;20056;-75
2022/04/21 05:53:00;;;;;;;12.40;5.85;;;;;;;;;;5032868;28;20022;-74
2022/04/21 05:55:26;;;;;;;10.52;5.22;;;;;;;;;;5032521;28;20056;-75
2022/04/21 05:57:53;;;;;;;10.85;5.32;;;;;;;;;;5031751;28;20122;-75
2022/04/21 06:00:20;;;;;;;14.30;5.50;;;;;;;;;;5033592;28;20057;-74
2022/04/21 06:02:46;;;;;;;9.52;5.50;;;;;;;;;;5051827;28;20017;-74
2022/04/21 06:05:12;;;;;;;9.32;5.47;;;;;;;;;;5051315;28;20048;-74
2022/04/21 06:07:39;;;;;;;8.77;5.13;;;;;;;;;;5051688;28;20021;-75
2022/04/21 06:10:05;;;;;;;8.60;5.00;;;;;;;;;;5051714;28;20106;-74
2022/04/21 06:12:34;;;;;;;9.82;5.10;;;;;;;;;;5037536;28;20099;-75
2022/04/21 06:15:00;;;;;;;9.55;4.80;;;;;;;;;;5031615;28;20028;-75
2022/04/21 06:17:26;;;;;;;10.63;5.32;;;;;;;;;;5031799;28;20026;-74
2022/04/21 06:19:52;;;;;;;7.07;4.50;;;;;;;;;;5031683;28;20040;-74
2022/04/21 06:22:18;;;;;;;8.23;4.80;;;;;;;;;;5046529;28;20104;-75
2022/04/21 06:24:44;;;;;;;10.00;4.47;;;;;;;;;;5051529;28;20028;-75
2022/04/21 06:27:10;;;;;;;7.65;4.22;;;;;;;;;;5051606;28;20032;-75
2022/04/21 06:29:36;;;;;;;10.85;4.72;;;;;;;;;;5051357;28;20017;-75
2022/04/21 06:32:03;;;;;;;9.43;4.20;;;;;;;;;;5052148;28;20028;-75
2022/04/21 06:34:29;;;;;;;8.23;4.40;;;;;;;;;;5055070;28;20032;-75
2022/04/21 06:36:55;;;;;;;7.97;4.18;;;;;;;;;;5055271;28;20024;-74
2022/04/21 06:39:21;;;;;;;6.97;4.03;;;;;;;;;;5055286;28;20036;-74
2022/04/21 06:41:47;;;;;;;7.05;4.20;;;;;;;;;;5054964;28;20025;-75
2022/04/21 06:49:42;;;;;;;10.52;3.75;;;;;;;;;;5055057;28;20759;-75
2022/04/21 06:52:08;;;;;;;6.38;4.15;;;;;;;;;;5055014;28;20467;-74
2022/04/21 06:54:34;;;;;;;5.03;3.47;;;;;;;;;;5054911;28;20052;-74
2022/04/21 06:57:00;;;;;;;8.77;3.80;;;;;;;;;;5053663;28;20025;-75
2022/04/21 06:59:26;;;;;;;7.90;3.60;;;;;;;;;;5054849;28;20443;-74
2022/04/21 07:01:52;;;;;;;7.13;3.78;;;;;;;;;;5054661;28;20108;-74
2022/04/21 07:04:18;;;;;;;10.80;3.95;;;;;;;;;;5054614;28;20037;-74
2022/04/21 07:06:44;;;;;;;8.93;3.83;;;;;;;;;;5054756;28;20021;-74
2022/04/21 07:09:10;;;;;;;6.55;3.75;;;;;;;;;;5054626;28;20434;-74
2022/04/21 07:11:38;;;;;;;7.10;4.10;;;;;;;;;;5048024;28;20025;-74
2022/04/21 07:14:04;;;;;;;9.18;3.65;;;;;;;;;;5034525;28;20071;-74
2022/04/21 07:16:30;;;;;;;7.22;4.03;;;;;;;;;;5034714;28;20030;-74
2022/04/21 07:18:56;;;;;;;10.32;4.05;;;;;;;;;;5034511;28;20087;-74
2022/04/21 07:21:22;;;;;;;11.02;4.20;;;;;;;;;;5042865;28;20517;-75
2022/04/21 07:23:49;;;;;;;6.88;3.70;;;;;;;;;;5054342;28;20108;-74
2022/04/21 07:26:15;;;;;;;10.65;4.18;;;;;;;;;;5054431;28;20021;-75
2022/04/21 07:28:44;;;;;;;5.32;3.60;;;;;;;;;;5054251;28;20064;-74
2022/04/21 07:31:10;;;;;;;7.93;3.40;;;;;;;;;;5054006;28;20470;-74
2022/04/21 07:33:36;;;;;;;9.98;3.63;;;;;;;;;;5054180;28;20028;-74
2022/04/21 07:36:02;;;;;;;5.00;3.25;;;;;;;;;;5054089;28;20025;-74
2022/04/21 07:38:30;;;;;;;5.45;3.35;;;;;;;;;;5054079;28;20048;-74
2022/04/21 07:40:57;;;;;;;8.20;3.20;;;;;;;;;;5053999;28;20025;-74
2022/04/21 07:43:23;;;;;;;6.00;2.90;;;;;;;;;;5053775;28;20616;-74
2022/04/21 07:45:51;;;;;;;4.28;2.33;;;;;;;;;;5052477;28;20029;-73
2022/04/21 07:48:17;;;;;;;5.32;2.75;;;;;;;;;;5052488;28;20486;-75
2022/04/21 07:50:43;;;;;;;4.72;2.38;;;;;;;;;;5053733;28;20029;-74
2022/04/21 07:53:18;;;;;;;6.03;2.72;;;;;;;;;;5053746;28;20035;-74
2022/04/21 07:55:50;;;;;;;5.63;2.45;;;;;;;;;;5054057;28;20111;-74
2022/04/21 07:58:16;;;;;;;3.47;2.22;;;;;;;;;;5053839;28;20022;-74
2022/04/21 08:00:42;;;;;;;4.03;2.30;;;;;;;;;;5048205;28;20049;-74
2022/04/21 08:03:09;;;;;;;3.40;2.22;;;;;;;;;;5033916;28;20539;-74
2022/04/21 08:05:36;;;;;;;3.72;2.08;;;;;;;;;;5033619;28;20534;-74
2022/04/21 08:08:03;;;;;;;7.70;2.20;;;;;;;;;;5033806;28;20026;-74
2022/04/21 08:10:29;;;;;;;3.65;1.80;;;;;;;;;;5033799;28;20108;-74
2022/04/21 08:12:59;;;;;;;4.65;1.73;;;;;;;;;;5050909;28;20127;-74
2022/04/21 08:15:27;;;;;;;4.68;2.30;;;;;;;;;;5053472;28;20544;-74
2022/04/21 08:17:54;;;;;;;3.15;2.00;;;;;;;;;;5053438;28;20032;-74
2022/04/21 08:20:20;;;;;;;6.10;1.85;;;;;;;;;;5053321;28;20104;-74
2022/04/21 08:22:46;;;;;;;3.97;2.20;;;;;;;;;;5053496;28;20100;-74
2022/04/21 08:33:28;;;;;;;3.97;1.50;;;;;;;;;;5053228;28;20035;-74
2022/04/21 08:35:58;;;;;;;6.88;1.80;;;;;;;;;;5052879;28;20033;-74
2022/04/21 08:38:24;;;;;;;2.88;1.50;;;;;;;;;;5052955;28;20024;-74
2022/04/21 08:40:54;;;;;;;7.38;1.70;;;;;;;;;;5053133;28;20037;-74
2022/04/21 08:43:21;;;;;;;2.90;1.52;;;;;;;;;;5052895;28;20028;-74
2022/04/21 08:45:48;;;;;;;3.83;1.73;;;;;;;;;;5052712;28;20090;-74
2022/04/21 08:48:15;;;;;;;2.50;1.40;;;;;;;;;;5052882;28;20057;-74
2022/04/21 08:50:42;;;;;;;2.10;1.20;;;;;;;;;;5052811;28;20442;-74
2022/04/21 08:53:10;;;;;;;5.68;1.30;;;;;;;;;;5052825;28;20037;-74
2022/04/21 08:55:36;;;;;;;4.72;1.58;;;;;;;;;;5052455;28;20037;-74
2022/04/21 08:58:03;;;;;;;2.08;1.40;;;;;;;;;;5052604;28;20049;-74
2022/04/21 09:00:32;;;;;;;4.88;1.48;;;;;;;;;;5052374;28;20021;-74
2022/04/21 09:03:04;;;;;;;4.00;1.90;;;;;;;;;;5052580;28;20025;-73
2022/04/21 09:05:31;;;;;;;3.58;1.50;;;;;;;;;;5050900;28;20033;-74
2022/04/21 09:07:57;;;;;;;4.07;1.60;;;;;;;;;;5052365;28;20456;-73
2022/04/21 09:10:24;;;;;;;2.70;1.42;;;;;;;;;;5051058;28;20076;-74
2022/04/21 09:12:57;;;;;;;3.58;1.88;;;;;;;;;;5035790;28;20025;-74
2022/04/21 09:15:25;;;;;;;7.63;1.80;;;;;;;;;;5032247;28;20104;-73
2022/04/21 09:17:52;;;;;;;2.47;1.48;;;;;;;;;;5032294;28;20056;-74
2022/04/21 09:20:22;;;;;;;3.42;1.55;;;;;;;;;;5032112;28;20034;-73
2022/04/21 09:22:52;;;;;;;2.78;1.45;;;;;;;;;;5032361;28;20029;-74
2022/04/21 09:25:18;;;;;;;2.83;1.33;;;;;;;;;;5030845;28;20022;-73
2022/04/21 09:27:45;;;;;;;4.20;1.20;;;;;;;;;;5032358;28;20409;-73
2022/04/21 09:30:13;;;;;;;3.72;1.30;;;;;;;;;;5038623;28;20104;-73
2022/04/21 09:32:40;;;;;;;6.78;2.38;;;;;;;;;;5052014;28;20013;-73
2022/04/21 09:35:06;;;;;;;2.80;1.42;;;;;;;;;;5051619;28;20025;-73
2022/04/21 09:37:33;;;;;;;2.30;1.30;;;;;;;;;;5052051;28;20056;-74
2022/04/21 09:40:01;;;;;;;6.25;1.60;;;;;;;;;;5051899;28;20027;-73
2022/04/21 09:42:28;;;;;;;5.93;1.23;;;;;;;;;;5050494;28;20020;-74
2022/04/21 09:47:54;;;;;;;1.88;1.20;;;;;;;;;;5052031;28;20036;-74
2022/04/21 09:50:20;;;;;;;2.63;1.30;;;;;;;;;;5051814;28;20028;-74
2022/04/21 09:52:47;;;;;;;8.02;1.30;;;;;;;;;;5051922;28;20029;-74
2022/04/21 09:55:25;;;;;;;1.77;0.93;;;;;;;;;;5051696;28;20452;-73
2022/04/21 09:57:52;;;;;;;3.40;1.02;;;;;;;;;;5051423;28;20041;-73
2022/04/21 10:00:21;;;;;;;2.38;0.93;;;;;;;;;;5051163;28;20442;-74
2022/04/21 10:02:49;;;;;;;5.25;1.27;;;;;;;;;;5051452;28;20067;-74
2022/04/21 10:05:16;;;;;;;4.32;0.95;;;;;;;;;;5051087;28;20045;-74
2022/04/21 10:07:43;;;;;;;3.10;1.35;;;;;;;;;;5053100;28;20070;-73
2022/04/21 10:10:10;;;;;;;14.23;1.98;;;;;;;;;;5055419;28;20448;-73
2022/04/21 10:12:36;;;;;;;2.42;1.40;;;;;;;;;;5041031;28;20079;-74
2022/04/21 10:15:04;;;;;;;3.17;1.70;;;;;;;;;;5035731;28;20122;-73
2022/04/21 10:17:30;;;;;;;4.97;1.65;;;;;;;;;;5034271;28;20022;-75
2022/04/21 10:19:56;;;;;;;6.88;1.80;;;;;;;;;;5035335;28;20068;-74
2022/04/21 10:22:22;;;;;;;5.43;1.92;;;;;;;;;;5052194;28;20107;-74
2022/04/21 10:24:48;;;;;;;3.13;1.90;;;;;;;;;;5055423;28;20440;-74
2022/04/21 10:27:33;;;;;;;1.67;1.33;;;;;;;;;;5055550;28;20025;-74
2022/04/21 10:29:59;;;;;;;2.33;1.40;;;;;;;;;;5055060;28;20025;-73
2022/04/21 10:32:45;;;;;;;5.82;2.45;;;;;;;;;;5055247;28;20473;-74
2022/04/21 10:35:40;;;;;;;5.03;1.60;;;;;;;;;;5053563;28;20025;-74
2022/04/21 10:38:14;;;;;;;2.65;1.40;;;;;;;;;;5055284;28;20031;-74
2022/04/21 10:41:03;;;;;;;2.65;1.50;;;;;;;;;;5055113;28;20038;-73
2022/04/21 10:43:49;;;;;;;6.28;1.60;;;;;;;;;;5053804;28;20420;-74
2022/04/21 10:46:20;;;;;;;4.13;1.60;;;;;;;;;;5049834;28;20033;-74
2022/04/21 10:48:46;;;;;;;6.53;2.05;;;;;;;;;;5055154;28;20078;-73
2022/04/21 10:51:12;;;;;;;3.97;1.60;;;;;;;;;;5054993;28;20033;-74
2022/04/21 10:59:28;;;;;;;2.60;1.80;;;;;;;;;;5054929;28;20044;-74
2022/04/21 11:01:54;;;;;;;3.30;1.83;;;;;;;;;;5054666;28;20479;-73
2022/04/21 11:04:21;;;;;;;2.83;1.50;;;;;;;;;;5054740;28;20053;-74
2022/04/21 11:06:51;;;;;;;6.90;1.80;;;;;;;;;;5054601;28;20022;-73
2022/04/21 11:09:36;;;;;;;5.63;1.77;;;;;;;;;;5054586;28;20032;-74
2022/04/21 11:12:04;;;;;;;3.17;1.70;;;;;;;;;;5054701;28;20025;-74
2022/04/21 11:14:31;;;;;;;2.80;1.60;;;;;;;;;;5054708;28;20360;-74
2022/04/21 11:16:58;;;;;;;3.95;1.65;;;;;;;;;;5054507;28;20416;-73
2022/04/21 11:19:33;;;;;;;8.52;1.80;;;;;;;;;;5053875;28;20033;-74
2022/04/21 11:22:06;;;;;;;2.92;1.70;;;;;;;;;;5054216;28;20076;-74
2022/04/21 11:24:50;;;;;;;4.32;1.90;;;;;;;;;;5054318;28;20428;-74
2022/04/21 11:27:16;;;;;;;6.72;1.83;;;;;;;;;;5054413;28;20029;-74
2022/04/21 11:29:43;;;;;;;2.50;1.45;;;;;;;;;;5054031;28;20474;-74
2022/04/21 11:32:09;;;;;;;8.50;1.55;;;;;;;;;;5054217;28;20064;-73
2022/04/21 11:34:35;;;;;;;2.72;1.40;;;;;;;;;;5053746;28;20066;-73
2022/04/21 11:37:06;;;;;;;9.38;1.80;;;;;;;;;;5054115;28;20095;-75
2022/04/21 11:39:38;;;;;;;2.85;1.60;;;;;;;;;;5054149;28;20021;-74
2022/04/21 11:42:04;;;;;;;3.03;1.50;;;;;;;;;;5053935;28;20132;-73
2022/04/21 11:44:30;;;;;;;2.75;1.63;;;;;;;;;;5054012;28;20056;-74
2022/04/21 11:46:56;;;;;;;6.32;1.38;;;;;;;;;;5053911;28;20025;-73
2022/04/21 11:49:22;;;;;;;2.47;1.50;;;;;;;;;;5053967;28;20028;-74
2022/04/21 11:51:54;;;;;;;3.97;1.63;;;;;;;;;;5053962;28;20098;-74
2022/04/21 11:54:20;;;;;;;4.85;1.90;;;;;;;;;;5053900;28;20032;-74
2022/04/21 11:56:51;;;;;;;2.28;1.60;;;;;;;;;;5053906;28;20040;-74
2022/04/21 11:59:17;;;;;;;4.10;1.83;;;;;;;;;;5053836;28;20029;-74
2022/04/21 12:07:33;;;;;;;2.92;1.40;;;;;;;;;;5031436;28;20033;-74
2022/04/21 12:09:59;;;;;;;5.20;1.30;;;;;;;;;;5031307;28;20450;-74
2022/04/21 12:12:26;;;;;;;2.60;1.45;;;;;;;;;;5031172;28;20119;-74
2022/04/21 12:14:52;;;;;;;3.00;1.30;;;;;;;;;;5014707;28;20132;-74
2022/04/21 12:17:19;;;;;;;3.55;1.70;;;;;;;;;;5031227;28;20037;-74
2022/04/21 12:19:46;;;;;;;2.13;1.27;;;;;;;;;;5031138;28;20668;-74
2022/04/21 12:22:16;;;;;;;4.30;1.73;;;;;;;;;;5030657;28;20057;-74
2022/04/21 12:24:48;;;;;;;3.80;1.88;;;;;;;;;;5030876;28;20061;-74
2022/04/21 12:27:36;;;;;;;3.38;1.40;;;;;;;;;;5014438;28;20448;-74
2022/04/21 12:30:06;;;;;;;3.75;1.20;;;;;;;;;;5029897;28;20040;-74
2022/04/21 12:32:33;;;;;;;6.20;1.92;;;;;;;;;;5030800;28;20100;-74
2022/04/21 12:35:01;;;;;;;5.70;1.90;;;;;;;;;;5030365;28;20117;-74
2022/04/21 12:37:28;;;;;;;3.65;1.70;;;;;;;;;;5031118;28;20034;-74
2022/04/21 12:39:55;;;;;;;7.40;2.13;;;;;;;;;;5031641;28;20060;-74
2022/04/21 12:42:21;;;;;;;4.32;1.83;;;;;;;;;;5033093;28;20100;-75
2022/04/21 12:44:48;;;;;;;4.22;1.48;;;;;;;;;;5033032;28;20029;-75
2022/04/21 12:47:15;;;;;;;3.08;1.45;;;;;;;;;;5032785;28;20049;-74
2022/04/21 12:49:57;;;;;;;5.47;1.80;;;;;;;;;;5032862;28;20084;-75
2022/04/21 12:52:50;;;;;;;5.32;1.83;;;;;;;;;;5032801;28;20031;-73
2022/04/21 12:55:16;;;;;;;;;;;;;;;;;;5032374;28;20053;-73
2022/04/21 12:57:42;;;;;;;3.25;1.90;;;;;;;;;;5032740;28;19909;-73
2022/04/21 13:00:11;;;;;;;3.42;1.70;;;;;;;;;;5031526;28;20030;-75
2022/04/21 13:02:37;;;;;;;4.30;2.20;;;;;;;;;;5052551;28;20032;-74
2022/04/21 13:05:04;;;;;;;4.60;2.15;;;;;;;;;;5052387;28;20044;-74
2022/04/21 13:07:30;;;;;;;4.65;1.77;;;;;;;;;;5052446;28;20104;-74
2022/04/21 13:09:56;;;;;;;7.50;2.15;;;;;;;;;;5052467;28;20132;-74
2022/04/21 13:12:22;;;;;;;3.30;1.92;;;;;;;;;;5039528;28;20040;-75
2022/04/21 13:14:48;;;;;;;2.50;1.80;;;;;;;;;;5031071;28;20021;-75
2022/04/21 13:17:14;;;;;;;7.82;2.08;;;;;;;;;;5032358;28;20057;-74
2022/04/21 13:19:40;;;;;;;5.88;2.10;;;;;;;;;;5032363;28;20022;-75
2022/04/21 13:22:06;;;;;;;3.03;2.08;;;;;;;;;;5046550;28;20513;-75
2022/04/21 13:24:33;;;;;;;3.25;1.80;;;;;;;;;;5052206;28;20412;-74
2022/04/21 13:26:59;;;;;;;3.65;2.00;;;;;;;;;;5052181;28;20029;-75
2022/04/21 13:29:27;;;;;;;5.95;1.83;;;;;;;;;;5051977;28;20032;-75
2022/04/21 13:34:38;;;;;;;3.33;1.83;;;;;;;;;;5051982;28;20110;-75
2022/04/21 13:37:05;;;;;;;3.60;2.13;;;;;;;;;;5051971;28;20032;-74
2022/04/21 13:39:34;;;;;;;8.35;2.00;;;;;;;;;;5051926;28;20025;-75
2022/04/21 13:42:01;;;;;;;5.43;2.20;;;;;;;;;;5051571;28;20032;-75
2022/04/21 13:44:27;;;;;;;4.70;2.30;;;;;;;;;;5051890;28;20021;-74
2022/04/21 13:46:55;;;;;;;8.80;2.50;;;;;;;;;;5051874;28;20116;-75
2022/04/21 13:49:22;;;;;;;6.10;2.30;;;;;;;;;;5051894;28;20025;-75
2022/04/21 13:51:49;;;;;;;4.15;2.58;;;;;;;;;;5051809;28;20072;-74
2022/04/21 13:54:15;;;;;;;4.70;2.13;;;;;;;;;;5050276;28;20045;-75
2022/04/21 13:56:42;;;;;;;3.67;2.05;;;;;;;;;;5051927;28;20482;-75
2022/04/21 13:59:11;;;;;;;7.20;2.70;;;;;;;;;;5051761;28;20028;-75
2022/04/21 14:01:38;;;;;;;5.55;2.28;;;;;;;;;;5051518;28;20056;-75
2022/04/21 14:04:04;;;;;;;5.95;2.05;;;;;;;;;;5051524;28;20106;-74
2022/04/21 14:06:30;;;;;;;6.70;2.10;;;;;;;;;;5051547;28;20476;-75
2022/04/21 14:08:56;;;;;;;4.18;2.10;;;;;;;;;;5051551;28;20053;-75
2022/04/21 14:11:24;;;;;;;6.15;2.22;;;;;;;;;;5047142;28;20491;-75
2022/04/21 14:13:50;;;;;;;3.38;2.03;;;;;;;;;;5031701;28;20112;-75
2022/04/21 14:16:17;;;;;;;6.28;1.98;;;;;;;;;;5030217;28;20079;-75
2022/04/21 14:18:43;;;;;;;3.17;1.80;;;;;;;;;;5031763;28;20037;-75
2022/04/21 14:21:09;;;;;;;3.55;1.70;;;;;;;;;;5037791;28;20033;-75
2022/04/21 14:23:36;;;;;;;11.50;2.08;;;;;;;;;;5051492;28;20075;-76
2022/04/21 14:26:05;;;;;;;7.80;2.00;;;;;;;;;;5051540;28;20356;-74
2022/04/21 14:28:31;;;;;;;5.35;2.30;;;;;;;;;;5051453;28;20530;-74
2022/04/21 14:30:57;;;;;;;4.65;1.92;;;;;;;;;;5051448;28;20471;-75
2022/04/21 14:33:25;;;;;;;5.45;1.60;;;;;;;;;;5051347;28;20526;-73
2022/04/21 14:35:51;;;;;;;4.75;2.33;;;;;;;;;;5051178;28;20475;-74
2022/04/21 14:44:05;;;;;;;4.25;2.20;;;;;;;;;;5051400;28;20031;-74
2022/04/21 14:46:32;;;;;;;5.85;2.05;;;;;;;;;;5051252;28;20031;-74
2022/04/21 14:48:58;;;;;;;5.55;2.03;;;;;;;;;;5051318;28;20020;-74
2022/04/21 14:51:26;;;;;;;3.38;1.65;;;;;;;;;;5051125;28;20029;-74
2022/04/21 14:53:52;;;;;;;5.93;1.60;;;;;;;;;;5052929;28;20056;-74
2022/04/21 14:56:18;;;;;;;7.55;1.83;;;;;;;;;;5054996;28;20375;-74
2022/04/21 14:58:44;;;;;;;4.82;1.85;;;;;;;;;;5054617;28;20029;-74
2022/04/21 15:01:10;;;;;;;11.27;2.10;;;;;;;;;;5054467;28;20029;-74
2022/04/21 15:03:37;;;;;;;3.13;1.70;;;;;;;;;;5054869;28;20036;-74
2022/04/21 15:06:08;;;;;;;8.93;1.83;;;;;;;;;;5054490;28;20052;-74
2022/04/21 15:08:34;;;;;;;3.30;1.58;;;;;;;;;;5054410;28;20031;-73
2022/04/21 15:11:01;;;;;;;3.58;1.95;;;;;;;;;;5053008;28;20033;-75
2022/04/21 15:13:27;;;;;;;4.53;2.17;;;;;;;;;;5034692;28;20502;-72
2022/04/21 15:15:53;;;;;;;5.28;1.65;;;;;;;;;;5034638;28;20021;-73
2022/04/21 15:18:19;;;;;;;7.78;1.63;;;;;;;;;;5034717;28;20036;-74
2022/04/21 15:20:46;;;;;;;5.05;1.80;;;;;;;;;;5037718;28;20104;-75
2022/04/21 15:23:13;;;;;;;3.70;1.63;;;;;;;;;;5054347;28;20454;-73
2022/04/21 15:25:39;;;;;;;6.60;1.60;;;;;;;;;;5054341;28;20523;-73
2022/04/21 15:28:06;;;;;;;9.25;1.70;;;;;;;;;;5052881;28;20573;-74
2022/04/21 15:30:36;;;;;;;10.13;1.80;;;;;;;;;;5054046;28;20425;-76
2022/04/21 15:33:03;;;;;;;3.03;1.67;;;;;;;;;;5054221;28;20036;-75
2022/04/21 15:35:29;;;;;;;6.28;1.75;;;;;;;;;;5054027;28;20025;-73
2022/04/21 15:37:55;;;;;;;11.80;1.80;;;;;;;;;;5054162;28;20029;-74